Terminal Aerodrome Forecast
Issued by NWS

Home | Current Version | Previous Version | Text Only | Print | Product List | Glossary On
Versions: 1 2 3 4 5 6 7 8 9 10 11 12 13 14 15 16 17 18 19 20
000
FTUS45 KBOI 111326 AAA
TAFJER
TAF AMD
KJER 111326Z 1113/1212 VRB03KT 1/2SM FZFG BKN002
     FM111600 VRB03KT 6SM BR SCT005
     FM120300 VRB03KT 1SM BR OVC005=

USA.gov is the U.S. government's official web portal to all federal, state and local government web resources and services.